Time;durP1;ratioP1;P1;durP2;ratioP2;P2;SDS_P1;SDS_P2;PMS_P1;PMS_P2;Temp;Humidity;BMP_temperature;BMP_pressure;BME280_temperature;BME280_humidity;BME280_pressure;Samples;Min_cycle;Max_cycle;Signal;HPM_P1;HPM_P2
2023/05/25 00:01:18;;;;;;;21.17;18.08;;;16.90;99.90;;;;;;5087587;28;20254;-73
2023/05/25 00:04:09;;;;;;;25.80;19.10;;;16.90;99.90;;;;;;5076459;28;20313;-73
2023/05/25 00:06:58;;;;;;;24.02;18.38;;;16.90;99.90;;;;;;5079691;28;20634;-72
2023/05/25 00:09:47;;;;;;;26.05;19.73;;;16.70;99.90;;;;;;5068534;28;20216;-71
2023/05/25 00:12:37;;;;;;;29.17;19.33;;;16.60;99.90;;;;;;5081957;28;20247;-71
2023/05/25 00:15:26;;;;;;;29.08;20.45;;;16.70;99.90;;;;;;5079087;28;20228;-75
2023/05/25 00:18:15;;;;;;;23.40;19.08;;;16.70;99.90;;;;;;5084935;28;20656;-74
2023/05/25 00:21:06;;;;;;;24.42;18.73;;;16.70;99.90;;;;;;5087438;28;20207;-74
2023/05/25 00:23:54;;;;;;;27.60;20.13;;;16.70;99.90;;;;;;5076528;28;20302;-73
2023/05/25 00:26:43;;;;;;;28.77;20.17;;;16.70;99.90;;;;;;5080041;28;20250;-76
2023/05/25 00:29:36;;;;;;;28.27;19.75;;;16.70;99.90;;;;;;5082472;28;20757;-76
2023/05/25 00:32:25;;;;;;;25.00;19.63;;;16.60;99.90;;;;;;5077899;28;20227;-74
2023/05/25 00:35:14;;;;;;;29.92;20.52;;;16.60;99.90;;;;;;5079579;28;20216;-74
2023/05/25 00:38:03;;;;;;;28.65;20.75;;;16.70;99.90;;;;;;5073993;28;20968;-73
2023/05/25 00:40:56;;;;;;;29.67;22.05;;;16.60;99.90;;;;;;5074755;28;20406;-73
2023/05/25 00:43:46;;;;;;;29.50;21.45;;;16.50;99.90;;;;;;5075517;28;20217;-74
2023/05/25 00:46:37;;;;;;;35.80;21.83;;;16.50;99.90;;;;;;5076455;28;20342;-74
2023/05/25 00:49:26;;;;;;;31.08;22.65;;;16.50;99.90;;;;;;5078063;28;20726;-74
2023/05/25 00:52:16;;;;;;;31.95;23.17;;;16.70;99.90;;;;;;5086426;28;21067;-73
2023/05/25 00:55:10;;;;;;;29.90;22.60;;;16.60;99.90;;;;;;5082131;28;20701;-73
2023/05/25 00:58:03;;;;;;;33.97;23.13;;;16.50;99.90;;;;;;5084940;28;20236;-75
2023/05/25 01:00:55;;;;;;;31.65;23.45;;;16.70;99.90;;;;;;5083664;28;20230;-76
2023/05/25 01:03:52;;;;;;;32.58;22.80;;;16.40;99.90;;;;;;5083787;28;20711;-75
2023/05/25 01:06:45;;;;;;;37.53;23.20;;;16.60;99.90;;;;;;5083958;28;20316;-74
2023/05/25 01:09:35;;;;;;;38.08;24.52;;;16.50;99.90;;;;;;5092100;27;20439;-75
2023/05/25 01:12:26;;;;;;;33.75;23.67;;;16.50;99.90;;;;;;5086240;28;20208;-77
2023/05/25 01:15:15;;;;;;;35.20;24.52;;;16.60;99.90;;;;;;5087979;28;20230;-75
2023/05/25 01:18:05;;;;;;;39.05;25.10;;;16.60;99.90;;;;;;5088823;28;20235;-72
2023/05/25 01:21:11;;;;;;;38.83;24.05;;;16.50;99.90;;;;;;5086118;28;20331;-74
2023/05/25 01:24:07;;;;;;;37.63;25.50;;;16.50;99.90;;;;;;5084279;28;20230;-74
2023/05/25 01:27:01;;;;;;;35.83;24.75;;;16.50;99.90;;;;;;5083454;28;20223;-73
2023/05/25 01:29:51;;;;;;;39.22;26.13;;;16.40;99.90;;;;;;5082075;28;20227;-74
2023/05/25 01:32:42;;;;;;;40.45;25.65;;;16.30;99.90;;;;;;5085107;28;20231;-73
2023/05/25 01:35:32;;;;;;;41.10;26.80;;;16.40;99.90;;;;;;5082996;28;20698;-71
2023/05/25 01:38:22;;;;;;;42.17;26.85;;;16.40;99.90;;;;;;5084824;28;20224;-71
2023/05/25 01:41:12;;;;;;;43.28;27.48;;;16.40;99.90;;;;;;5084205;28;20928;-72
2023/05/25 01:44:00;;;;;;;43.42;26.80;;;16.50;99.90;;;;;;5090874;28;20296;-71
2023/05/25 01:46:54;;;;;;;44.50;26.92;;;16.50;99.90;;;;;;5082916;28;20235;-73
2023/05/25 01:49:56;;;;;;;45.03;28.25;;;16.50;99.90;;;;;;5081518;28;20754;-75
2023/05/25 01:52:50;;;;;;;44.65;27.70;;;16.30;99.90;;;;;;5083390;28;20656;-74
2023/05/25 01:55:46;;;;;;;42.97;28.60;;;16.30;99.90;;;;;;5081854;28;20646;-77
2023/05/25 01:58:39;;;;;;;45.78;29.40;;;16.40;99.90;;;;;;5081258;28;20224;-73
2023/05/25 02:01:29;;;;;;;44.75;28.23;;;16.10;99.90;;;;;;5085644;28;20349;-71
2023/05/25 02:04:26;;;;;;;42.35;26.92;;;16.30;99.90;;;;;;5079839;28;20290;-71
2023/05/25 02:07:15;;;;;;;40.35;27.35;;;16.50;99.90;;;;;;5075932;28;21186;-75
2023/05/25 02:10:04;;;;;;;45.88;29.50;;;16.30;99.90;;;;;;5072963;28;20216;-74
2023/05/25 02:12:55;;;;;;;39.42;27.63;;;16.30;99.90;;;;;;5078625;28;20219;-74
2023/05/25 02:15:43;;;;;;;42.88;27.40;;;16.20;99.90;;;;;;5083909;28;20290;-75
2023/05/25 02:18:33;;;;;;;36.78;26.88;;;16.30;99.90;;;;;;5080270;28;20220;-74
2023/05/25 02:21:22;;;;;;;35.55;25.58;;;16.50;99.90;;;;;;5083536;28;20225;-74
2023/05/25 02:24:12;;;;;;;36.45;26.00;;;16.50;99.90;;;;;;5074703;28;20994;-74
2023/05/25 02:27:02;;;;;;;39.90;26.77;;;16.30;99.90;;;;;;5079333;28;20284;-75
2023/05/25 02:29:53;;;;;;;40.10;26.30;;;16.30;99.90;;;;;;5076988;28;20227;-73
2023/05/25 02:32:42;;;;;;;36.97;26.10;;;16.30;99.90;;;;;;5081421;28;20234;-72
2023/05/25 02:35:31;;;;;;;32.67;25.08;;;16.30;99.90;;;;;;5073925;28;20231;-74
2023/05/25 02:38:20;;;;;;;34.35;25.50;;;16.40;99.90;;;;;;5077875;28;20215;-73
2023/05/25 02:41:09;;;;;;;34.70;26.52;;;16.30;99.90;;;;;;5087096;28;20224;-74
2023/05/25 02:43:58;;;;;;;34.97;26.02;;;16.30;99.90;;;;;;5081764;28;20694;-73
2023/05/25 02:46:48;;;;;;;34.80;25.73;;;16.30;99.90;;;;;;5075855;28;20228;-73
2023/05/25 02:49:37;;;;;;;36.97;25.60;;;16.40;99.90;;;;;;5073615;28;20220;-75
2023/05/25 02:52:29;;;;;;;33.58;24.70;;;16.30;99.90;;;;;;5080265;28;20250;-74
2023/05/25 02:55:19;;;;;;;37.17;26.00;;;16.40;99.90;;;;;;5077964;28;20231;-74
2023/05/25 02:58:08;;;;;;;36.13;25.10;;;16.30;99.90;;;;;;5067394;28;20227;-74
2023/05/25 03:01:17;;;;;;;35.83;25.33;;;16.40;99.90;;;;;;5081495;28;20223;-76
2023/05/25 03:04:17;;;;;;;39.35;26.10;;;16.20;99.90;;;;;;5077145;28;20299;-76
2023/05/25 03:07:06;;;;;;;35.35;24.42;;;16.40;99.90;;;;;;5076420;28;20223;-74
2023/05/25 03:09:55;;;;;;;35.45;24.67;;;16.50;99.90;;;;;;5084901;28;20474;-72
2023/05/25 03:12:44;;;;;;;36.08;25.13;;;16.50;99.90;;;;;;5075050;28;20318;-74
2023/05/25 03:15:34;;;;;;;34.10;25.85;;;16.10;99.90;;;;;;5079919;28;20718;-74
2023/05/25 03:18:24;;;;;;;34.10;25.23;;;16.30;99.90;;;;;;5072741;28;20342;-75
2023/05/25 03:21:15;;;;;;;37.28;25.63;;;16.20;99.90;;;;;;5075103;28;20244;-75
2023/05/25 03:24:05;;;;;;;38.55;25.52;;;16.20;99.90;;;;;;5085700;28;20215;-75
2023/05/25 03:26:55;;;;;;;36.28;26.00;;;16.30;99.90;;;;;;5080513;28;20273;-72
2023/05/25 03:29:44;;;;;;;34.70;25.77;;;16.30;99.90;;;;;;5072714;28;20246;-74
2023/05/25 03:32:35;;;;;;;35.58;25.58;;;16.30;99.90;;;;;;5070670;28;20226;-73
2023/05/25 03:35:24;;;;;;;34.97;26.20;;;16.30;99.90;;;;;;5078026;28;20227;-70
2023/05/25 03:38:16;;;;;;;41.75;26.63;;;16.30;99.90;;;;;;5075210;28;20761;-74
2023/05/25 03:41:06;;;;;;;32.85;24.30;;;16.20;99.90;;;;;;5076373;28;20212;-74
2023/05/25 03:43:55;;;;;;;33.80;25.27;;;16.40;99.90;;;;;;5080621;28;20661;-73
2023/05/25 03:46:44;;;;;;;38.80;25.50;;;16.30;99.90;;;;;;5079057;28;20230;-73
2023/05/25 03:49:33;;;;;;;36.08;25.00;;;16.30;99.90;;;;;;5079480;28;20224;-76
2023/05/25 03:52:22;;;;;;;35.85;25.60;;;16.30;99.90;;;;;;5077998;28;20232;-76
2023/05/25 03:55:14;;;;;;;38.83;26.35;;;16.30;99.90;;;;;;5079953;28;20226;-75
2023/05/25 03:58:03;;;;;;;35.97;25.48;;;16.40;99.90;;;;;;5079884;28;20224;-76
2023/05/25 04:00:53;;;;;;;37.60;26.55;;;16.40;99.90;;;;;;5081181;28;20344;-74
2023/05/25 04:03:43;;;;;;;37.17;26.17;;;16.30;99.90;;;;;;5081165;28;20792;-71
2023/05/25 04:06:32;;;;;;;37.65;26.23;;;16.40;99.90;;;;;;5079461;28;20223;-75
2023/05/25 04:09:22;;;;;;;37.28;26.13;;;16.50;99.90;;;;;;5079983;28;20765;-76
2023/05/25 04:12:12;;;;;;;36.97;26.67;;;16.50;99.90;;;;;;5081048;28;20219;-75
2023/05/25 04:15:02;;;;;;;35.97;25.80;;;16.40;99.90;;;;;;5079228;28;20807;-76
2023/05/25 04:17:51;;;;;;;37.47;25.98;;;16.40;99.90;;;;;;5081569;28;20243;-74
2023/05/25 04:20:40;;;;;;;43.67;27.65;;;16.50;99.90;;;;;;5076478;28;20241;-74
2023/05/25 04:23:33;;;;;;;39.58;27.35;;;16.40;99.90;;;;;;5079384;28;20231;-73
2023/05/25 04:26:25;;;;;;;40.40;27.77;;;16.40;99.90;;;;;;5077003;28;20227;-74
2023/05/25 04:29:17;;;;;;;40.20;27.48;;;16.30;99.90;;;;;;5071192;28;20247;-74
2023/05/25 04:32:17;;;;;;;44.78;27.98;;;16.50;99.90;;;;;;5077372;28;20223;-73
2023/05/25 04:35:19;;;;;;;36.50;27.00;;;16.60;99.90;;;;;;5077780;28;20226;-73
2023/05/25 04:38:11;;;;;;;41.58;27.98;;;16.40;99.90;;;;;;5081663;28;20737;-74
2023/05/25 04:41:01;;;;;;;41.65;28.60;;;16.70;99.90;;;;;;5078552;28;20215;-72
2023/05/25 04:43:52;;;;;;;41.22;28.08;;;16.50;99.90;;;;;;5076459;28;20219;-73
2023/05/25 04:46:58;;;;;;;40.45;27.95;;;16.50;99.90;;;;;;5078915;28;20538;-70
2023/05/25 04:49:51;;;;;;;39.60;27.23;;;16.60;99.90;;;;;;5081442;28;20675;-73
2023/05/25 04:52:40;;;;;;;39.90;26.52;;;16.70;99.90;;;;;;5055242;28;20219;-72
2023/05/25 04:55:31;;;;;;;39.53;27.10;;;16.70;99.90;;;;;;5097072;28;20228;-70
2023/05/25 04:58:20;;;;;;;43.38;28.98;;;16.60;99.90;;;;;;5075362;28;20227;-71
2023/05/25 05:01:08;;;;;;;41.95;27.88;;;16.50;99.90;;;;;;5076157;28;20357;-73
2023/05/25 05:03:58;;;;;;;39.33;27.67;;;16.50;99.90;;;;;;5092730;28;20985;-72
2023/05/25 05:06:48;;;;;;;43.38;28.42;;;16.60;99.90;;;;;;5073780;28;20239;-76
2023/05/25 05:09:40;;;;;;;39.63;28.42;;;16.80;99.90;;;;;;5073783;28;20215;-78
2023/05/25 05:12:30;;;;;;;42.95;27.77;;;16.70;99.90;;;;;;5079278;28;20241;-76
2023/05/25 05:15:21;;;;;;;40.28;27.95;;;16.70;99.90;;;;;;5070527;28;20297;-77
2023/05/25 05:18:12;;;;;;;39.15;28.38;;;16.70;99.90;;;;;;5068633;28;20219;-78
2023/05/25 05:21:03;;;;;;;45.10;28.13;;;16.70;99.90;;;;;;5076832;28;20227;-73
2023/05/25 05:23:52;;;;;;;41.42;28.10;;;16.60;99.90;;;;;;5080348;28;20996;-76
2023/05/25 05:26:41;;;;;;;42.17;27.88;;;16.70;99.90;;;;;;5079888;28;20231;-74
2023/05/25 05:29:54;;;;;;;40.80;26.65;;;16.70;99.90;;;;;;5078221;28;20645;-75
2023/05/25 05:32:43;;;;;;;41.35;27.73;;;16.60;99.90;;;;;;5084739;28;20288;-74
2023/05/25 05:35:35;;;;;;;37.15;26.48;;;16.80;99.90;;;;;;5080735;28;20231;-75
2023/05/25 05:38:33;;;;;;;39.63;26.50;;;16.70;99.90;;;;;;5081744;28;20778;-72
2023/05/25 05:41:22;;;;;;;43.20;27.30;;;16.70;99.90;;;;;;5083683;28;20227;-71
2023/05/25 05:44:11;;;;;;;37.55;27.75;;;16.70;99.90;;;;;;5079243;28;20376;-73
2023/05/25 05:47:00;;;;;;;38.65;27.35;;;16.70;99.90;;;;;;5078435;28;20853;-71
2023/05/25 05:49:50;;;;;;;36.38;25.98;;;16.80;99.90;;;;;;5078408;28;20223;-73
2023/05/25 05:52:39;;;;;;;38.15;26.35;;;16.80;99.90;;;;;;5083397;28;20299;-73
2023/05/25 05:55:32;;;;;;;42.22;26.90;;;16.70;99.90;;;;;;5079104;28;20481;-73
2023/05/25 05:58:21;;;;;;;41.25;27.95;;;16.80;99.90;;;;;;5080974;28;20240;-73
2023/05/25 06:01:10;;;;;;;40.53;26.92;;;16.70;99.90;;;;;;5080495;28;20336;-75
2023/05/25 06:03:58;;;;;;;38.08;26.52;;;16.90;99.90;;;;;;5082172;28;20219;-72
2023/05/25 06:06:48;;;;;;;36.22;24.52;;;17.00;99.90;;;;;;5078272;28;20258;-71
2023/05/25 06:09:37;;;;;;;43.67;25.83;;;16.90;99.90;;;;;;5077207;28;20231;-71
2023/05/25 06:12:27;;;;;;;42.72;26.45;;;17.00;99.90;;;;;;5091260;28;20373;-71
2023/05/25 06:15:16;;;;;;;39.03;26.20;;;17.00;99.90;;;;;;5087098;28;20219;-72
2023/05/25 06:18:08;;;;;;;36.22;26.40;;;16.90;99.90;;;;;;5083224;28;20211;-71
2023/05/25 06:20:57;;;;;;;39.17;25.40;;;17.20;99.90;;;;;;5084029;28;20223;-71
2023/05/25 06:23:46;;;;;;;37.63;25.58;;;17.20;99.90;;;;;;5085720;28;20249;-70
2023/05/25 06:26:35;;;;;;;36.50;25.30;;;17.30;99.90;;;;;;5082703;28;20219;-71
2023/05/25 06:29:25;;;;;;;33.42;25.27;;;17.20;99.90;;;;;;5081627;28;20710;-73
2023/05/25 06:32:15;;;;;;;35.85;24.17;;;17.30;99.90;;;;;;5082787;28;20787;-73
2023/05/25 06:35:04;;;;;;;33.15;24.42;;;17.20;99.90;;;;;;5079105;28;20303;-71
2023/05/25 06:37:56;;;;;;;29.92;23.55;;;17.40;99.90;;;;;;5076213;28;20242;-71
2023/05/25 06:40:46;;;;;;;32.88;24.73;;;17.30;99.90;;;;;;5088759;28;20639;-70
2023/05/25 06:43:35;;;;;;;33.78;24.67;;;17.40;99.90;;;;;;5079188;28;20230;-71
2023/05/25 06:46:35;;;;;;;37.00;24.08;;;17.20;99.90;;;;;;5082362;28;20313;-72
2023/05/25 06:49:24;;;;;;;30.60;24.27;;;17.40;99.90;;;;;;5078401;28;20352;-69
2023/05/25 06:52:13;;;;;;;32.88;24.00;;;17.40;99.90;;;;;;5080472;28;20219;-70
2023/05/25 06:55:02;;;;;;;37.20;23.77;;;17.50;99.90;;;;;;5081503;28;20298;-67
2023/05/25 06:57:52;;;;;;;40.90;25.10;;;17.50;99.90;;;;;;5081656;28;20303;-68
2023/05/25 07:00:41;;;;;;;33.63;24.27;;;17.50;99.90;;;;;;5079958;28;20844;-68
2023/05/25 07:03:33;;;;;;;37.20;26.40;;;17.60;99.90;;;;;;5078592;28;20250;-66
2023/05/25 07:06:22;;;;;;;30.52;25.08;;;17.70;99.90;;;;;;5075582;28;20265;-67
2023/05/25 07:09:16;;;;;;;33.92;25.05;;;17.40;99.90;;;;;;5075384;28;20239;-67
2023/05/25 07:12:06;;;;;;;38.17;27.02;;;17.40;99.90;;;;;;5080201;28;20242;-72
2023/05/25 07:14:55;;;;;;;32.53;25.10;;;17.50;99.90;;;;;;5080907;28;20593;-71
2023/05/25 07:17:44;;;;;;;31.98;24.38;;;17.40;99.90;;;;;;5076683;28;20240;-72
2023/05/25 07:20:34;;;;;;;34.63;24.55;;;17.40;99.90;;;;;;5077509;28;20223;-71
2023/05/25 07:23:23;;;;;;;32.60;25.00;;;17.40;99.90;;;;;;5079479;28;20231;-70
2023/05/25 07:26:13;;;;;;;28.13;23.40;;;17.50;99.90;;;;;;5075406;28;20254;-72
2023/05/25 07:29:02;;;;;;;29.27;23.67;;;17.50;99.90;;;;;;5079431;28;20332;-71
2023/05/25 07:31:51;;;;;;;29.02;23.70;;;17.70;99.90;;;;;;5080614;28;20216;-71
2023/05/25 07:34:41;;;;;;;33.92;25.02;;;17.90;99.90;;;;;;5077622;28;20234;-70
2023/05/25 07:37:32;;;;;;;30.27;24.75;;;17.80;99.90;;;;;;5080007;28;20223;-71
2023/05/25 07:40:21;;;;;;;29.05;23.67;;;17.80;99.90;;;;;;5074113;28;20388;-70
2023/05/25 07:43:10;;;;;;;31.38;24.30;;;17.90;99.90;;;;;;5079694;28;20231;-71
2023/05/25 07:46:00;;;;;;;27.60;23.27;;;18.00;99.90;;;;;;5076159;28;20250;-69
2023/05/25 07:48:48;;;;;;;30.73;24.13;;;18.10;99.90;;;;;;5082924;28;20311;-72
2023/05/25 07:51:37;;;;;;;34.03;24.25;;;18.20;99.90;;;;;;5076851;28;20303;-68
2023/05/25 07:54:27;;;;;;;32.83;24.25;;;18.40;99.90;;;;;;5080165;28;20223;-73
2023/05/25 07:57:16;;;;;;;28.67;23.30;;;18.40;99.90;;;;;;5085363;28;20308;-73
2023/05/25 08:00:07;;;;;;;28.73;23.38;;;18.40;99.90;;;;;;5078692;28;20234;-71
2023/05/25 08:03:02;;;;;;;29.63;22.80;;;18.40;99.90;;;;;;5081234;28;20211;-77
2023/05/25 08:05:51;;;;;;;33.53;22.67;;;18.80;99.90;;;;;;5077426;28;20219;-77
2023/05/25 08:08:40;;;;;;;31.75;23.83;;;18.90;99.90;;;;;;5075833;28;20373;-80
2023/05/25 08:11:31;;;;;;;30.70;21.98;;;19.20;99.90;;;;;;5079369;28;20248;-80
2023/05/25 08:14:22;;;;;;;33.70;23.17;;;19.40;99.90;;;;;;5079671;28;20216;-78
2023/05/25 08:17:11;;;;;;;36.40;23.27;;;19.50;99.90;;;;;;5079609;28;20916;-80
2023/05/25 08:20:00;;;;;;;29.88;23.42;;;19.70;99.90;;;;;;5079393;28;20221;-81
2023/05/25 08:22:52;;;;;;;31.38;22.95;;;19.70;99.90;;;;;;5081555;28;20702;-80
2023/05/25 08:25:41;;;;;;;29.70;22.75;;;19.70;99.90;;;;;;5074472;28;20272;-81
2023/05/25 08:28:32;;;;;;;29.58;22.35;;;19.80;99.90;;;;;;5077379;28;20231;-79
2023/05/25 08:31:21;;;;;;;28.50;22.38;;;20.00;99.90;;;;;;5088997;28;20331;-79
2023/05/25 08:34:10;;;;;;;27.17;22.42;;;20.00;99.90;;;;;;5074266;28;20219;-79
2023/05/25 08:36:58;;;;;;;27.85;23.00;;;20.20;99.90;;;;;;5081758;28;20219;-79
2023/05/25 08:39:47;;;;;;;27.98;23.13;;;20.30;99.90;;;;;;5068053;28;20254;-80
2023/05/25 08:42:36;;;;;;;27.35;22.98;;;20.40;99.90;;;;;;5073652;28;20254;-80
2023/05/25 08:45:26;;;;;;;28.27;23.02;;;20.70;99.90;;;;;;5083262;28;20219;-79
2023/05/25 08:48:23;;;;;;;28.55;22.50;;;21.00;99.90;;;;;;5066489;28;20320;-80
2023/05/25 08:51:35;;;;;;;25.02;21.85;;;21.10;99.90;;;;;;5068699;28;20231;-80
2023/05/25 08:54:29;;;;;;;28.70;23.05;;;21.30;99.90;;;;;;5072493;28;20368;-80
2023/05/25 08:57:24;;;;;;;34.05;22.17;;;21.30;99.90;;;;;;5074145;28;20698;-80
2023/05/25 09:00:15;;;;;;;27.70;23.02;;;21.40;99.90;;;;;;5091406;28;20254;-80
2023/05/25 09:03:11;;;;;;;30.52;23.33;;;21.00;99.90;;;;;;5083999;28;20219;-80
2023/05/25 09:06:00;;;;;;;28.05;21.75;;;20.50;99.90;;;;;;5076754;28;20226;-79
2023/05/25 09:08:49;;;;;;;26.30;21.55;;;20.70;99.90;;;;;;5081177;28;20234;-80
2023/05/25 09:11:39;;;;;;;47.17;22.58;;;21.70;99.90;;;;;;5081742;28;20243;-79
2023/05/25 09:14:33;;;;;;;27.98;22.65;;;21.80;99.90;;;;;;5088407;28;20219;-78
2023/05/25 09:17:22;;;;;;;26.60;22.90;;;21.60;99.90;;;;;;5082696;28;20227;-79
2023/05/25 09:20:14;;;;;;;27.45;22.15;;;21.50;99.90;;;;;;5084809;28;20223;-80
2023/05/25 09:23:03;;;;;;;30.70;23.33;;;21.30;99.90;;;;;;5085908;28;20218;-79
2023/05/25 09:25:54;;;;;;;30.23;22.75;;;21.30;99.90;;;;;;5085801;28;20340;-79
2023/05/25 09:28:46;;;;;;;27.23;21.80;;;21.20;99.90;;;;;;5081817;28;20228;-80
2023/05/25 09:31:35;;;;;;;25.33;21.65;;;21.10;99.90;;;;;;5078267;28;20779;-81
2023/05/25 09:34:24;;;;;;;25.77;22.30;;;21.20;99.90;;;;;;5085019;28;20220;-80
2023/05/25 09:37:15;;;;;;;24.08;21.02;;;21.10;99.90;;;;;;5088844;28;20238;-80
2023/05/25 09:40:07;;;;;;;24.85;21.33;;;21.00;99.90;;;;;;5080856;28;20233;-81
2023/05/25 09:42:59;;;;;;;25.20;20.90;;;21.10;99.90;;;;;;5085326;28;20792;-80
2023/05/25 09:45:48;;;;;;;23.95;20.48;;;21.10;99.90;;;;;;5087002;28;20215;-78
2023/05/25 09:48:37;;;;;;;23.52;20.25;;;20.80;99.90;;;;;;5087397;28;20292;-80
2023/05/25 09:51:26;;;;;;;30.75;21.45;;;21.10;99.90;;;;;;5081949;28;20220;-80
2023/05/25 09:54:17;;;;;;;23.95;19.63;;;21.00;99.90;;;;;;5082568;28;20219;-80
2023/05/25 09:57:06;;;;;;;25.83;21.33;;;21.20;99.90;;;;;;5082297;28;20231;-80
2023/05/25 09:59:56;;;;;;;22.70;20.25;;;21.30;99.90;;;;;;5086786;28;20223;-78
2023/05/25 10:02:45;;;;;;;26.70;20.48;;;22.70;99.90;;;;;;5087767;28;20227;-79
2023/05/25 10:05:35;;;;;;;24.15;20.08;;;22.50;99.90;;;;;;5084947;28;20219;-77
2023/05/25 10:08:25;;;;;;;24.73;20.50;;;22.20;99.90;;;;;;5077046;28;20769;-77
2023/05/25 10:11:21;;;;;;;28.65;21.30;;;22.10;99.90;;;;;;5087737;28;20215;-77
2023/05/25 10:14:13;;;;;;;21.77;19.30;;;21.80;99.90;;;;;;5079269;28;20308;-79
2023/05/25 10:17:06;;;;;;;26.63;21.67;;;21.50;99.90;;;;;;5080409;28;20230;-78
2023/05/25 10:19:59;;;;;;;24.35;20.75;;;21.40;99.90;;;;;;5083530;28;20215;-79
2023/05/25 10:22:53;;;;;;;27.15;21.23;;;21.40;99.90;;;;;;5096554;28;20220;-79
2023/05/25 10:25:45;;;;;;;28.75;20.70;;;21.20;99.90;;;;;;5096010;28;20698;-78
2023/05/25 10:28:37;;;;;;;24.02;21.35;;;21.10;99.90;;;;;;5088038;28;20223;-78
2023/05/25 10:31:28;;;;;;;24.55;20.77;;;21.00;99.90;;;;;;5083056;28;20212;-79
2023/05/25 10:34:18;;;;;;;26.20;20.85;;;21.00;99.90;;;;;;5079364;28;20777;-79
2023/05/25 10:37:08;;;;;;;25.95;20.90;;;21.10;99.90;;;;;;5072792;28;20236;-79
2023/05/25 10:40:00;;;;;;;25.23;19.58;;;21.10;99.90;;;;;;5082973;28;20239;-78
2023/05/25 10:42:50;;;;;;;21.80;19.40;;;21.00;99.90;;;;;;5082894;28;20292;-78
2023/05/25 10:45:41;;;;;;;27.48;20.42;;;21.00;99.90;;;;;;5071903;28;20219;-78
2023/05/25 10:48:38;;;;;;;24.08;20.10;;;21.10;99.90;;;;;;5078468;28;20250;-78
2023/05/25 10:51:37;;;;;;;25.40;19.63;;;21.30;99.90;;;;;;5080420;28;20699;-79
2023/05/25 10:54:30;;;;;;;25.08;19.42;;;21.50;99.90;;;;;;5085125;28;20219;-77
2023/05/25 10:57:20;;;;;;;26.33;20.05;;;21.70;99.90;;;;;;5080970;28;20239;-80
2023/05/25 11:00:14;;;;;;;25.20;18.95;;;21.90;99.90;;;;;;5083792;28;20231;-79
2023/05/25 11:03:05;;;;;;;22.98;19.13;;;22.10;99.90;;;;;;5086978;28;20250;-79
2023/05/25 11:05:54;;;;;;;22.20;18.55;;;22.20;99.90;;;;;;5078195;28;20216;-78
2023/05/25 11:08:50;;;;;;;22.92;18.45;;;22.90;99.90;;;;;;5074234;28;20223;-78
2023/05/25 11:12:02;;;;;;;21.40;19.05;;;23.40;99.90;;;;;;5072430;28;20230;-79
2023/05/25 11:15:15;;;;;;;22.02;18.80;;;23.60;99.90;;;;;;5071032;28;21028;-79
2023/05/25 11:18:05;;;;;;;21.08;17.92;;;24.10;99.90;;;;;;5073582;28;20242;-80
2023/05/25 11:21:11;;;;;;;26.67;18.48;;;25.00;99.90;;;;;;5075741;28;20220;-78
2023/05/25 11:24:02;;;;;;;25.23;19.95;;;25.80;99.90;;;;;;5085138;28;20233;-78
2023/05/25 11:26:55;;;;;;;26.60;18.77;;;26.20;99.90;;;;;;5084226;28;20234;-79
2023/05/25 11:29:44;;;;;;;24.20;19.70;;;25.70;99.90;;;;;;5074140;28;20311;-79
2023/05/25 11:32:32;;;;;;;22.90;19.30;;;25.40;99.90;;;;;;5076184;28;20226;-80
2023/05/25 11:35:23;;;;;;;24.13;19.75;;;26.50;99.90;;;;;;5082018;28;21032;-79
2023/05/25 11:38:12;;;;;;;24.40;19.60;;;27.00;99.90;;;;;;5076094;28;20220;-79
2023/05/25 11:41:03;;;;;;;27.52;18.67;;;27.60;99.90;;;;;;5078414;28;20223;-80
2023/05/25 11:43:54;;;;;;;21.88;18.65;;;31.70;99.80;;;;;;5065871;28;20837;-81
2023/05/25 11:46:47;;;;;;;21.40;18.08;;;34.90;90.70;;;;;;5076809;28;20223;-80
2023/05/25 11:49:45;;;;;;;21.90;17.92;;;34.00;83.00;;;;;;5083913;28;20223;-81
2023/05/25 11:52:35;;;;;;;17.75;15.95;;;34.90;85.60;;;;;;5084297;28;20873;-79
2023/05/25 11:55:24;;;;;;;19.13;17.20;;;37.20;79.50;;;;;;5083485;28;20757;-79
2023/05/25 11:58:13;;;;;;;19.08;17.00;;;37.80;75.00;;;;;;5084213;28;20349;-80
2023/05/25 12:01:17;;;;;;;20.42;15.82;;;36.90;72.70;;;;;;5082122;28;20250;-80
2023/05/25 12:04:10;;;;;;;19.85;14.88;;;36.00;75.50;;;;;;5086002;28;20219;-82
2023/05/25 12:07:03;;;;;;;17.73;13.68;;;37.80;71.40;;;;;;5082550;28;20326;-79
2023/05/25 12:10:05;;;;;;;16.20;12.90;;;38.50;68.90;;;;;;5077061;28;20333;-79
2023/05/25 12:12:57;;;;;;;15.77;11.38;;;39.80;65.10;;;;;;5081643;28;20282;-78
2023/05/25 12:15:46;;;;;;;13.40;11.75;;;40.00;61.60;;;;;;5092803;28;20279;-80
2023/05/25 12:18:35;;;;;;;17.73;11.73;;;41.20;61.30;;;;;;5086768;28;20234;-81
2023/05/25 12:21:25;;;;;;;12.18;10.98;;;42.30;58.30;;;;;;5083351;28;20302;-78
2023/05/25 12:24:14;;;;;;;16.02;10.77;;;43.40;56.80;;;;;;5066780;28;20242;-80
2023/05/25 12:27:16;;;;;;;14.57;11.40;;;44.40;55.60;;;;;;5079617;28;20230;-80
2023/05/25 12:30:08;;;;;;;12.95;10.40;;;43.50;53.00;;;;;;5066774;28;20229;-79
2023/05/25 12:33:01;;;;;;;13.85;9.65;;;44.10;54.20;;;;;;5077585;28;20703;-79
2023/05/25 12:35:52;;;;;;;14.50;9.55;;;44.50;52.30;;;;;;5076312;28;20743;-79
2023/05/25 12:38:58;;;;;;;12.65;10.20;;;39.00;55.60;;;;;;5082430;28;20218;-77
2023/05/25 12:41:50;;;;;;;11.25;10.15;;;38.60;57.00;;;;;;5080840;28;20286;-79
2023/05/25 12:44:45;;;;;;;12.52;10.48;;;37.60;58.30;;;;;;5080798;28;20869;-73
2023/05/25 12:47:34;;;;;;;12.35;10.55;;;34.40;61.70;;;;;;5078331;28;20316;-73
2023/05/25 12:50:23;;;;;;;14.75;12.65;;;32.30;66.90;;;;;;5084198;28;20638;-73
2023/05/25 12:53:12;;;;;;;17.40;11.38;;;30.60;73.80;;;;;;5080649;28;20211;-73
2023/05/25 12:56:03;;;;;;;16.63;11.77;;;29.80;75.00;;;;;;5076718;28;20305;-70
2023/05/25 12:58:52;;;;;;;15.30;11.70;;;29.20;77.40;;;;;;5082163;28;20219;-72
2023/05/25 13:01:42;;;;;;;15.88;13.45;;;28.50;80.10;;;;;;5086374;28;20249;-74
2023/05/25 13:04:31;;;;;;;15.55;14.02;;;27.70;83.00;;;;;;5087049;28;20212;-74
2023/05/25 13:07:21;;;;;;;15.05;13.30;;;27.20;86.90;;;;;;5082236;28;20276;-70
2023/05/25 13:10:12;;;;;;;14.95;13.45;;;26.90;89.60;;;;;;5082529;28;20240;-71
2023/05/25 13:13:04;;;;;;;16.63;13.85;;;26.80;90.80;;;;;;5083913;28;20709;-72
2023/05/25 13:15:52;;;;;;;15.95;13.48;;;26.90;91.00;;;;;;5082981;28;20215;-73
2023/05/25 13:18:43;;;;;;;14.27;12.82;;;26.80;90.70;;;;;;5086050;28;20233;-73
2023/05/25 13:21:32;;;;;;;15.18;13.38;;;26.50;91.00;;;;;;5083612;28;20237;-74
2023/05/25 13:24:21;;;;;;;14.43;12.23;;;26.20;91.60;;;;;;5081107;28;20235;-76
2023/05/25 13:27:10;;;;;;;13.80;12.40;;;26.10;91.50;;;;;;5082473;28;20762;-78
2023/05/25 13:30:01;;;;;;;17.00;12.45;;;26.20;92.30;;;;;;5078003;28;20595;-82
2023/05/25 13:32:51;;;;;;;18.48;13.27;;;26.30;92.50;;;;;;5084389;28;20261;-80
2023/05/25 13:35:56;;;;;;;14.70;12.88;;;26.20;92.30;;;;;;5079711;28;20224;-81
2023/05/25 13:38:45;;;;;;;14.90;12.60;;;26.00;92.30;;;;;;5082756;28;20222;-82
2023/05/25 13:41:34;;;;;;;13.77;12.32;;;26.20;93.70;;;;;;5084119;28;20227;-82
2023/05/25 13:44:23;;;;;;;15.35;11.90;;;26.20;92.70;;;;;;5085880;28;20229;-82
2023/05/25 13:47:12;;;;;;;13.85;11.68;;;26.10;92.70;;;;;;5081792;28;20516;-82
2023/05/25 13:50:01;;;;;;;14.98;11.70;;;26.10;93.00;;;;;;5084919;28;20226;-81
2023/05/25 13:52:52;;;;;;;13.27;11.98;;;26.10;92.70;;;;;;5080801;28;20230;-83
2023/05/25 13:55:41;;;;;;;12.05;10.80;;;26.00;92.80;;;;;;5084387;28;20310;-81
2023/05/25 13:58:30;;;;;;;14.05;10.65;;;25.90;92.70;;;;;;5084804;28;20249;-81
2023/05/25 14:01:19;;;;;;;14.60;10.88;;;25.80;93.00;;;;;;5084760;28;20328;-81
2023/05/25 14:04:08;;;;;;;15.25;11.60;;;25.80;93.30;;;;;;5084682;28;20231;-80
2023/05/25 14:06:59;;;;;;;15.20;11.13;;;25.90;93.10;;;;;;5099799;28;20254;-81
2023/05/25 14:09:49;;;;;;;11.48;10.38;;;25.80;93.30;;;;;;5082467;28;20684;-81
2023/05/25 14:12:38;;;;;;;12.10;10.80;;;25.80;92.60;;;;;;5076741;28;20690;-81
2023/05/25 14:15:27;;;;;;;18.90;11.30;;;25.70;92.30;;;;;;5087923;28;20384;-81
2023/05/25 14:18:16;;;;;;;18.65;11.13;;;25.60;92.30;;;;;;5079112;28;20219;-80
2023/05/25 14:21:05;;;;;;;13.57;11.13;;;25.50;92.90;;;;;;5112978;27;20254;-81
2023/05/25 14:23:54;;;;;;;12.02;10.70;;;25.30;92.90;;;;;;5071206;28;20223;-79
2023/05/25 14:26:44;;;;;;;14.45;11.23;;;25.20;92.90;;;;;;5081962;28;20261;-82
2023/05/25 14:29:34;;;;;;;11.82;10.25;;;25.10;93.20;;;;;;5085846;28;20241;-80